This is the latest recevied weather packets stored in our database for station/object K0KDS. If no packets are shown the sender has not sent any weather packets the latest 10 day(s).
| Time | Temp. | Humidity | Pressure | Rain* | Wind** | Luminosity | Snow |
|---|---|---|---|---|---|---|---|
| 1777619739 | 5.56° C | 70% | 1015.1 hPa | 0 mm | - | - | - |
| 1777618839 | 5° C | 70% | 1015 hPa | 0 mm | - | - | - |
| 1777617939 | 5° C | 70% | 1015.1 hPa | 0 mm | - | - | - |
| 1777617039 | 5° C | 70% | 1015.2 hPa | 0 mm | - | - | - |
| 1777616139 | 5° C | 69% | 1015.2 hPa | 0 mm | - | - | - |
| 1777615239 | 5° C | 70% | 1015.3 hPa | 0 mm | - | - | - |
| 1777614339 | 5° C | 71% | 1015.4 hPa | 0 mm | - | - | - |
| 1777613439 | 5° C | 72% | 1015.4 hPa | 0 mm | - | - | - |
| 1777612539 | 5° C | 71% | 1015.4 hPa | 0 mm | - | - | - |
| 1777611639 | 5° C | 70% | 1015.4 hPa | 0 mm | - | - | - |
| 1777610739 | 5° C | 68% | 1015.4 hPa | 0 mm | - | - | - |
| 1777609839 | 5° C | 67% | 1015.4 hPa | 0 mm | - | - | - |
| 1777608939 | 5.56° C | 64% | 1015.5 hPa | 0 mm | - | - | - |
| 1777608039 | 6.11° C | 65% | 1015.6 hPa | 0 mm | - | - | - |
| 1777607139 | 5.56° C | 66% | 1015.7 hPa | 0 mm | - | - | - |
| 1777606239 | 6.11° C | 66% | 1015.8 hPa | 0 mm | - | - | - |
| 1777605339 | 5.56° C | 68% | 1015.8 hPa | 0 mm | - | - | - |
| 1777604439 | 6.11° C | 67% | 1015.7 hPa | 0 mm | - | - | - |
| 1777603539 | 6.67° C | 62% | 1015.6 hPa | 0 mm | - | - | - |
| 1777602639 | 7.22° C | 61% | 1015.6 hPa | 0 mm | - | - | - |
| 1777601739 | 7.22° C | 59% | 1015.4 hPa | 0 mm | - | - | - |
| 1777600839 | 7.78° C | 56% | 1015.2 hPa | 0 mm | - | - | - |
| 1777599939 | 8.33° C | 55% | 1015.1 hPa | 0 mm | - | - | - |
| 1777599039 | 9.44° C | 50% | 1014.9 hPa | 0 mm | - | - | - |
| 1777598139 | 10° C | 49% | 1015 hPa | 0 mm | - | - | - |
* Rain latest hour (hover to see other rain measurements)
** Current wind speed in m/s (hover to see current wind gust speed)